sensor_id;sensor_type;location;lat;lon;timestamp;P1;durP1;ratioP1;P2;durP2;ratioP2
54897;SDS011;40800;52.704;6.398;2022-08-30T00:01:32;8.93;;;8.05;;
54897;SDS011;40800;52.704;6.398;2022-08-30T00:03:59;8.82;;;7.97;;
54897;SDS011;40800;52.704;6.398;2022-08-30T00:08:53;8.43;;;7.50;;
54897;SDS011;40800;52.704;6.398;2022-08-30T00:11:20;8.45;;;7.65;;
54897;SDS011;40800;52.704;6.398;2022-08-30T00:13:48;8.48;;;7.57;;
54897;SDS011;40800;52.704;6.398;2022-08-30T00:16:15;9.00;;;8.00;;
54897;SDS011;40800;52.704;6.398;2022-08-30T00:21:08;8.60;;;7.80;;
54897;SDS011;40800;52.704;6.398;2022-08-30T00:23:34;9.38;;;8.25;;
54897;SDS011;40800;52.704;6.398;2022-08-30T00:26:00;8.40;;;7.53;;
54897;SDS011;40800;52.704;6.398;2022-08-30T00:28:26;9.10;;;8.20;;
54897;SDS011;40800;52.704;6.398;2022-08-30T00:30:52;9.00;;;7.82;;
54897;SDS011;40800;52.704;6.398;2022-08-30T00:33:18;8.98;;;8.05;;
54897;SDS011;40800;52.704;6.398;2022-08-30T00:35:43;9.02;;;8.07;;
54897;SDS011;40800;52.704;6.398;2022-08-30T00:38:10;9.77;;;8.52;;
54897;SDS011;40800;52.704;6.398;2022-08-30T00:40:38;8.93;;;7.90;;
54897;SDS011;40800;52.704;6.398;2022-08-30T00:43:07;8.77;;;7.85;;
54897;SDS011;40800;52.704;6.398;2022-08-30T00:45:37;8.63;;;7.82;;
54897;SDS011;40800;52.704;6.398;2022-08-30T00:48:04;8.57;;;7.72;;
54897;SDS011;40800;52.704;6.398;2022-08-30T00:50:38;10.05;;;8.45;;
54897;SDS011;40800;52.704;6.398;2022-08-30T00:53:08;9.38;;;8.48;;
54897;SDS011;40800;52.704;6.398;2022-08-30T00:55:37;8.05;;;7.25;;
54897;SDS011;40800;52.704;6.398;2022-08-30T00:58:05;10.25;;;8.45;;
54897;SDS011;40800;52.704;6.398;2022-08-30T01:00:34;9.13;;;8.13;;
54897;SDS011;40800;52.704;6.398;2022-08-30T01:03:00;9.60;;;8.32;;
54897;SDS011;40800;52.704;6.398;2022-08-30T01:05:26;10.27;;;7.97;;
54897;SDS011;40800;52.704;6.398;2022-08-30T01:07:52;10.25;;;8.63;;
54897;SDS011;40800;52.704;6.398;2022-08-30T01:10:18;9.35;;;8.45;;
54897;SDS011;40800;52.704;6.398;2022-08-30T01:12:44;9.15;;;8.23;;
54897;SDS011;40800;52.704;6.398;2022-08-30T01:17:41;12.30;;;8.65;;
54897;SDS011;40800;52.704;6.398;2022-08-30T01:20:14;9.80;;;8.80;;
54897;SDS011;40800;52.704;6.398;2022-08-30T01:25:13;9.30;;;8.40;;
54897;SDS011;40800;52.704;6.398;2022-08-30T01:27:43;9.70;;;8.80;;
54897;SDS011;40800;52.704;6.398;2022-08-30T01:30:29;8.75;;;7.95;;
54897;SDS011;40800;52.704;6.398;2022-08-30T01:32:57;12.55;;;9.50;;
54897;SDS011;40800;52.704;6.398;2022-08-30T01:35:25;10.75;;;9.20;;
54897;SDS011;40800;52.704;6.398;2022-08-30T01:37:58;11.13;;;9.75;;
54897;SDS011;40800;52.704;6.398;2022-08-30T01:40:25;11.23;;;9.57;;
54897;SDS011;40800;52.704;6.398;2022-08-30T01:42:50;9.45;;;8.55;;
54897;SDS011;40800;52.704;6.398;2022-08-30T01:45:16;9.85;;;8.60;;
54897;SDS011;40800;52.704;6.398;2022-08-30T01:47:41;9.38;;;8.48;;
54897;SDS011;40800;52.704;6.398;2022-08-30T01:50:08;10.05;;;9.05;;
54897;SDS011;40800;52.704;6.398;2022-08-30T01:52:35;10.13;;;9.02;;
54897;SDS011;40800;52.704;6.398;2022-08-30T01:55:01;9.98;;;9.05;;
54897;SDS011;40800;52.704;6.398;2022-08-30T01:57:27;11.57;;;9.07;;
54897;SDS011;40800;52.704;6.398;2022-08-30T01:59:52;9.70;;;8.73;;
54897;SDS011;40800;52.704;6.398;2022-08-30T02:02:20;9.68;;;8.68;;
54897;SDS011;40800;52.704;6.398;2022-08-30T02:04:51;9.27;;;8.23;;
54897;SDS011;40800;52.704;6.398;2022-08-30T02:07:18;11.18;;;8.82;;
54897;SDS011;40800;52.704;6.398;2022-08-30T02:09:44;10.18;;;9.15;;
54897;SDS011;40800;52.704;6.398;2022-08-30T02:12:10;9.80;;;8.90;;
54897;SDS011;40800;52.704;6.398;2022-08-30T02:14:36;10.60;;;9.32;;
54897;SDS011;40800;52.704;6.398;2022-08-30T02:17:03;10.02;;;9.02;;
54897;SDS011;40800;52.704;6.398;2022-08-30T02:19:30;9.95;;;8.50;;
54897;SDS011;40800;52.704;6.398;2022-08-30T02:21:55;12.02;;;9.32;;
54897;SDS011;40800;52.704;6.398;2022-08-30T02:24:21;10.13;;;9.20;;
54897;SDS011;40800;52.704;6.398;2022-08-30T02:26:47;10.27;;;9.27;;
54897;SDS011;40800;52.704;6.398;2022-08-30T02:29:13;10.63;;;9.23;;
54897;SDS011;40800;52.704;6.398;2022-08-30T02:31:39;10.67;;;9.67;;
54897;SDS011;40800;52.704;6.398;2022-08-30T02:34:05;10.93;;;9.80;;
54897;SDS011;40800;52.704;6.398;2022-08-30T02:36:31;10.73;;;9.73;;
54897;SDS011;40800;52.704;6.398;2022-08-30T02:38:57;11.00;;;9.57;;
54897;SDS011;40800;52.704;6.398;2022-08-30T02:41:23;11.35;;;9.60;;
54897;SDS011;40800;52.704;6.398;2022-08-30T02:43:49;10.32;;;9.30;;
54897;SDS011;40800;52.704;6.398;2022-08-30T02:46:15;10.68;;;9.68;;
54897;SDS011;40800;52.704;6.398;2022-08-30T02:48:42;10.77;;;9.68;;
54897;SDS011;40800;52.704;6.398;2022-08-30T02:51:09;12.35;;;9.93;;
54897;SDS011;40800;52.704;6.398;2022-08-30T02:53:37;11.18;;;10.07;;
54897;SDS011;40800;52.704;6.398;2022-08-30T02:56:03;10.52;;;9.55;;
54897;SDS011;40800;52.704;6.398;2022-08-30T02:58:29;11.10;;;10.00;;
54897;SDS011;40800;52.704;6.398;2022-08-30T03:00:55;11.90;;;10.35;;
54897;SDS011;40800;52.704;6.398;2022-08-30T03:03:20;11.57;;;10.32;;
54897;SDS011;40800;52.704;6.398;2022-08-30T03:05:46;10.90;;;9.80;;
54897;SDS011;40800;52.704;6.398;2022-08-30T03:08:12;11.68;;;10.55;;
54897;SDS011;40800;52.704;6.398;2022-08-30T03:10:38;11.02;;;9.88;;
54897;SDS011;40800;52.704;6.398;2022-08-30T03:13:04;11.27;;;10.27;;
54897;SDS011;40800;52.704;6.398;2022-08-30T03:15:31;11.45;;;10.05;;
54897;SDS011;40800;52.704;6.398;2022-08-30T03:17:58;11.45;;;10.27;;
54897;SDS011;40800;52.704;6.398;2022-08-30T03:20:24;11.07;;;9.98;;
54897;SDS011;40800;52.704;6.398;2022-08-30T03:22:50;11.18;;;10.13;;
54897;SDS011;40800;52.704;6.398;2022-08-30T03:25:16;11.90;;;10.80;;
54897;SDS011;40800;52.704;6.398;2022-08-30T03:27:44;11.45;;;10.25;;
54897;SDS011;40800;52.704;6.398;2022-08-30T03:30:10;11.85;;;10.57;;
54897;SDS011;40800;52.704;6.398;2022-08-30T03:32:37;10.57;;;9.68;;
54897;SDS011;40800;52.704;6.398;2022-08-30T03:35:03;11.80;;;10.70;;
54897;SDS011;40800;52.704;6.398;2022-08-30T03:37:29;11.60;;;10.48;;
54897;SDS011;40800;52.704;6.398;2022-08-30T03:39:55;12.30;;;11.00;;
54897;SDS011;40800;52.704;6.398;2022-08-30T03:42:21;12.15;;;10.95;;
54897;SDS011;40800;52.704;6.398;2022-08-30T03:44:48;11.80;;;10.55;;
54897;SDS011;40800;52.704;6.398;2022-08-30T03:47:14;12.02;;;10.82;;
54897;SDS011;40800;52.704;6.398;2022-08-30T03:49:39;13.70;;;10.85;;
54897;SDS011;40800;52.704;6.398;2022-08-30T03:52:05;12.02;;;10.85;;
54897;SDS011;40800;52.704;6.398;2022-08-30T03:54:30;12.40;;;11.20;;
54897;SDS011;40800;52.704;6.398;2022-08-30T03:56:56;12.70;;;11.48;;
54897;SDS011;40800;52.704;6.398;2022-08-30T03:59:22;12.02;;;10.93;;
54897;SDS011;40800;52.704;6.398;2022-08-30T04:01:48;11.85;;;10.75;;
54897;SDS011;40800;52.704;6.398;2022-08-30T04:04:14;12.35;;;11.15;;
54897;SDS011;40800;52.704;6.398;2022-08-30T04:06:40;12.77;;;11.57;;
54897;SDS011;40800;52.704;6.398;2022-08-30T04:09:05;12.48;;;11.27;;
54897;SDS011;40800;52.704;6.398;2022-08-30T04:11:31;12.90;;;11.52;;
54897;SDS011;40800;52.704;6.398;2022-08-30T04:13:57;12.30;;;11.07;;
54897;SDS011;40800;52.704;6.398;2022-08-30T04:16:23;12.80;;;11.50;;
54897;SDS011;40800;52.704;6.398;2022-08-30T04:18:50;29.50;;;12.55;;
54897;SDS011;40800;52.704;6.398;2022-08-30T04:21:15;14.88;;;11.43;;
54897;SDS011;40800;52.704;6.398;2022-08-30T04:23:41;21.77;;;12.43;;
54897;SDS011;40800;52.704;6.398;2022-08-30T04:26:07;31.25;;;12.65;;
54897;SDS011;40800;52.704;6.398;2022-08-30T04:28:33;16.90;;;12.90;;
54897;SDS011;40800;52.704;6.398;2022-08-30T04:31:00;19.85;;;12.10;;
54897;SDS011;40800;52.704;6.398;2022-08-30T04:33:39;15.90;;;12.32;;
54897;SDS011;40800;52.704;6.398;2022-08-30T04:36:05;14.32;;;12.30;;
54897;SDS011;40800;52.704;6.398;2022-08-30T04:38:32;14.05;;;12.63;;
54897;SDS011;40800;52.704;6.398;2022-08-30T04:40:59;14.75;;;13.07;;
54897;SDS011;40800;52.704;6.398;2022-08-30T04:43:25;14.30;;;12.32;;
54897;SDS011;40800;52.704;6.398;2022-08-30T04:45:52;16.15;;;12.60;;
54897;SDS011;40800;52.704;6.398;2022-08-30T04:48:19;17.83;;;13.40;;
54897;SDS011;40800;52.704;6.398;2022-08-30T04:50:46;15.13;;;13.63;;
54897;SDS011;40800;52.704;6.398;2022-08-30T04:53:12;16.75;;;14.52;;
54897;SDS011;40800;52.704;6.398;2022-08-30T04:55:39;16.15;;;13.10;;
54897;SDS011;40800;52.704;6.398;2022-08-30T04:58:07;15.05;;;13.55;;
54897;SDS011;40800;52.704;6.398;2022-08-30T05:00:34;17.85;;;13.75;;
54897;SDS011;40800;52.704;6.398;2022-08-30T05:03:01;14.95;;;13.40;;
54897;SDS011;40800;52.704;6.398;2022-08-30T05:05:28;16.05;;;13.63;;
54897;SDS011;40800;52.704;6.398;2022-08-30T05:08:06;17.38;;;15.68;;
54897;SDS011;40800;52.704;6.398;2022-08-30T05:10:38;15.82;;;14.15;;
54897;SDS011;40800;52.704;6.398;2022-08-30T05:13:04;15.70;;;13.75;;
54897;SDS011;40800;52.704;6.398;2022-08-30T05:15:30;16.73;;;13.40;;
54897;SDS011;40800;52.704;6.398;2022-08-30T05:17:56;15.05;;;13.63;;
54897;SDS011;40800;52.704;6.398;2022-08-30T05:20:22;15.27;;;13.82;;
54897;SDS011;40800;52.704;6.398;2022-08-30T05:22:47;18.80;;;14.15;;
54897;SDS011;40800;52.704;6.398;2022-08-30T05:25:17;16.58;;;12.93;;
54897;SDS011;40800;52.704;6.398;2022-08-30T05:27:44;15.38;;;13.68;;
54897;SDS011;40800;52.704;6.398;2022-08-30T05:30:10;15.05;;;13.48;;
54897;SDS011;40800;52.704;6.398;2022-08-30T05:32:37;15.27;;;13.82;;
54897;SDS011;40800;52.704;6.398;2022-08-30T05:35:04;15.23;;;13.65;;
54897;SDS011;40800;52.704;6.398;2022-08-30T05:39:56;15.15;;;13.75;;
54897;SDS011;40800;52.704;6.398;2022-08-30T05:42:21;18.58;;;14.05;;
54897;SDS011;40800;52.704;6.398;2022-08-30T05:44:50;15.50;;;13.70;;
54897;SDS011;40800;52.704;6.398;2022-08-30T05:47:17;15.82;;;14.23;;
54897;SDS011;40800;52.704;6.398;2022-08-30T05:49:43;14.95;;;13.05;;
54897;SDS011;40800;52.704;6.398;2022-08-30T05:52:09;14.65;;;13.35;;
54897;SDS011;40800;52.704;6.398;2022-08-30T05:54:34;15.43;;;13.73;;
54897;SDS011;40800;52.704;6.398;2022-08-30T05:57:00;15.15;;;13.55;;
54897;SDS011;40800;52.704;6.398;2022-08-30T05:59:25;15.40;;;12.93;;
54897;SDS011;40800;52.704;6.398;2022-08-30T06:01:51;15.20;;;13.60;;
54897;SDS011;40800;52.704;6.398;2022-08-30T06:04:21;15.18;;;13.57;;
54897;SDS011;40800;52.704;6.398;2022-08-30T06:06:47;14.95;;;13.55;;
54897;SDS011;40800;52.704;6.398;2022-08-30T06:09:13;15.18;;;13.50;;
54897;SDS011;40800;52.704;6.398;2022-08-30T06:11:39;15.10;;;13.47;;
54897;SDS011;40800;52.704;6.398;2022-08-30T06:14:05;14.27;;;12.98;;
54897;SDS011;40800;52.704;6.398;2022-08-30T06:16:31;14.02;;;12.60;;
54897;SDS011;40800;52.704;6.398;2022-08-30T06:18:57;15.20;;;13.23;;
54897;SDS011;40800;52.704;6.398;2022-08-30T06:21:31;16.35;;;13.23;;
54897;SDS011;40800;52.704;6.398;2022-08-30T06:24:01;18.02;;;13.95;;
54897;SDS011;40800;52.704;6.398;2022-08-30T06:26:28;15.55;;;12.98;;
54897;SDS011;40800;52.704;6.398;2022-08-30T06:28:54;13.75;;;12.55;;
54897;SDS011;40800;52.704;6.398;2022-08-30T06:31:21;13.90;;;12.68;;
54897;SDS011;40800;52.704;6.398;2022-08-30T06:33:49;14.13;;;12.68;;
54897;SDS011;40800;52.704;6.398;2022-08-30T06:36:17;13.57;;;12.00;;
54897;SDS011;40800;52.704;6.398;2022-08-30T06:38:45;14.18;;;12.73;;
54897;SDS011;40800;52.704;6.398;2022-08-30T06:41:12;13.27;;;11.55;;
54897;SDS011;40800;52.704;6.398;2022-08-30T06:43:39;13.55;;;12.30;;
54897;SDS011;40800;52.704;6.398;2022-08-30T06:46:07;13.60;;;12.25;;
54897;SDS011;40800;52.704;6.398;2022-08-30T06:48:34;12.38;;;11.07;;
54897;SDS011;40800;52.704;6.398;2022-08-30T06:50:59;12.38;;;11.18;;
54897;SDS011;40800;52.704;6.398;2022-08-30T06:53:25;11.73;;;10.70;;
54897;SDS011;40800;52.704;6.398;2022-08-30T06:55:57;11.75;;;10.70;;
54897;SDS011;40800;52.704;6.398;2022-08-30T06:58:25;11.20;;;10.07;;
54897;SDS011;40800;52.704;6.398;2022-08-30T07:00:52;10.82;;;9.82;;
54897;SDS011;40800;52.704;6.398;2022-08-30T07:03:17;10.82;;;9.75;;
54897;SDS011;40800;52.704;6.398;2022-08-30T07:05:44;10.70;;;9.60;;
54897;SDS011;40800;52.704;6.398;2022-08-30T07:08:11;12.07;;;8.70;;
54897;SDS011;40800;52.704;6.398;2022-08-30T07:10:38;10.90;;;8.77;;
54897;SDS011;40800;52.704;6.398;2022-08-30T07:15:30;9.00;;;7.93;;
54897;SDS011;40800;52.704;6.398;2022-08-30T07:17:56;9.38;;;7.53;;
54897;SDS011;40800;52.704;6.398;2022-08-30T07:20:40;7.97;;;6.05;;
54897;SDS011;40800;52.704;6.398;2022-08-30T07:23:06;7.57;;;5.10;;
54897;SDS011;40800;52.704;6.398;2022-08-30T07:25:33;7.28;;;5.97;;
54897;SDS011;40800;52.704;6.398;2022-08-30T07:28:04;9.48;;;5.05;;
54897;SDS011;40800;52.704;6.398;2022-08-30T07:30:30;7.00;;;4.32;;
54897;SDS011;40800;52.704;6.398;2022-08-30T07:32:57;6.95;;;3.85;;
54897;SDS011;40800;52.704;6.398;2022-08-30T07:35:23;5.10;;;3.40;;
54897;SDS011;40800;52.704;6.398;2022-08-30T07:37:48;5.47;;;3.75;;
54897;SDS011;40800;52.704;6.398;2022-08-30T07:40:14;4.68;;;3.42;;
54897;SDS011;40800;52.704;6.398;2022-08-30T07:42:40;5.72;;;3.20;;
54897;SDS011;40800;52.704;6.398;2022-08-30T07:45:06;7.72;;;3.28;;
54897;SDS011;40800;52.704;6.398;2022-08-30T07:47:32;5.53;;;3.22;;
54897;SDS011;40800;52.704;6.398;2022-08-30T07:49:59;4.32;;;2.72;;
54897;SDS011;40800;52.704;6.398;2022-08-30T07:52:25;5.22;;;2.72;;
54897;SDS011;40800;52.704;6.398;2022-08-30T07:57:21;7.20;;;2.78;;
54897;SDS011;40800;52.704;6.398;2022-08-30T07:59:47;4.72;;;2.50;;
54897;SDS011;40800;52.704;6.398;2022-08-30T08:02:13;5.35;;;2.30;;
54897;SDS011;40800;52.704;6.398;2022-08-30T08:04:38;4.68;;;2.42;;
54897;SDS011;40800;52.704;6.398;2022-08-30T08:07:04;4.82;;;2.13;;
54897;SDS011;40800;52.704;6.398;2022-08-30T08:09:30;4.15;;;2.15;;
54897;SDS011;40800;52.704;6.398;2022-08-30T08:11:57;2.88;;;2.00;;
54897;SDS011;40800;52.704;6.398;2022-08-30T08:14:23;3.28;;;2.10;;
54897;SDS011;40800;52.704;6.398;2022-08-30T08:16:49;5.10;;;2.10;;
54897;SDS011;40800;52.704;6.398;2022-08-30T08:19:15;4.72;;;2.00;;
54897;SDS011;40800;52.704;6.398;2022-08-30T08:21:40;4.50;;;2.22;;
54897;SDS011;40800;52.704;6.398;2022-08-30T08:24:06;9.25;;;2.35;;
54897;SDS011;40800;52.704;6.398;2022-08-30T08:26:35;7.95;;;2.20;;
54897;SDS011;40800;52.704;6.398;2022-08-30T08:29:02;4.90;;;2.00;;
54897;SDS011;40800;52.704;6.398;2022-08-30T08:31:29;6.07;;;2.30;;
54897;SDS011;40800;52.704;6.398;2022-08-30T08:33:55;3.30;;;2.20;;
54897;SDS011;40800;52.704;6.398;2022-08-30T08:38:48;4.95;;;2.47;;
54897;SDS011;40800;52.704;6.398;2022-08-30T08:43:57;4.68;;;2.22;;
54897;SDS011;40800;52.704;6.398;2022-08-30T08:48:57;3.72;;;2.00;;
54897;SDS011;40800;52.704;6.398;2022-08-30T08:51:30;4.45;;;2.30;;
54897;SDS011;40800;52.704;6.398;2022-08-30T08:57:08;4.45;;;2.08;;
54897;SDS011;40800;52.704;6.398;2022-08-30T08:59:35;7.07;;;2.40;;
54897;SDS011;40800;52.704;6.398;2022-08-30T09:02:17;5.65;;;2.33;;
54897;SDS011;40800;52.704;6.398;2022-08-30T09:04:48;5.10;;;2.40;;
54897;SDS011;40800;52.704;6.398;2022-08-30T09:07:20;5.97;;;2.10;;
54897;SDS011;40800;52.704;6.398;2022-08-30T09:09:48;4.18;;;2.45;;
54897;SDS011;40800;52.704;6.398;2022-08-30T09:12:14;6.00;;;2.67;;
54897;SDS011;40800;52.704;6.398;2022-08-30T09:14:45;6.72;;;2.20;;
54897;SDS011;40800;52.704;6.398;2022-08-30T09:17:16;7.15;;;2.35;;
54897;SDS011;40800;52.704;6.398;2022-08-30T09:19:55;11.02;;;2.50;;
54897;SDS011;40800;52.704;6.398;2022-08-30T09:22:33;6.00;;;2.40;;
54897;SDS011;40800;52.704;6.398;2022-08-30T09:27:40;4.28;;;2.00;;
54897;SDS011;40800;52.704;6.398;2022-08-30T09:32:39;4.13;;;1.90;;
54897;SDS011;40800;52.704;6.398;2022-08-30T09:35:09;5.45;;;2.13;;
54897;SDS011;40800;52.704;6.398;2022-08-30T09:37:39;4.68;;;2.25;;
54897;SDS011;40800;52.704;6.398;2022-08-30T09:40:12;4.07;;;2.03;;
54897;SDS011;40800;52.704;6.398;2022-08-30T09:42:41;3.67;;;2.05;;
54897;SDS011;40800;52.704;6.398;2022-08-30T09:45:28;4.30;;;1.98;;
54897;SDS011;40800;52.704;6.398;2022-08-30T09:47:56;4.53;;;1.80;;
54897;SDS011;40800;52.704;6.398;2022-08-30T09:50:21;3.60;;;2.17;;
54897;SDS011;40800;52.704;6.398;2022-08-30T10:03:41;3.13;;;1.88;;
54897;SDS011;40800;52.704;6.398;2022-08-30T10:06:35;4.03;;;1.98;;
54897;SDS011;40800;52.704;6.398;2022-08-30T10:12:38;3.83;;;1.80;;
54897;SDS011;40800;52.704;6.398;2022-08-30T10:15:52;3.33;;;1.70;;
54897;SDS011;40800;52.704;6.398;2022-08-30T10:17:51;4.10;;;1.90;;
54897;SDS011;40800;52.704;6.398;2022-08-30T10:20:30;4.47;;;1.88;;
54897;SDS011;40800;52.704;6.398;2022-08-30T10:23:11;4.45;;;1.77;;
54897;SDS011;40800;52.704;6.398;2022-08-30T10:30:48;3.10;;;1.75;;
54897;SDS011;40800;52.704;6.398;2022-08-30T10:33:22;3.20;;;1.80;;
54897;SDS011;40800;52.704;6.398;2022-08-30T10:35:52;2.95;;;1.85;;
54897;SDS011;40800;52.704;6.398;2022-08-30T10:38:24;4.20;;;2.00;;
54897;SDS011;40800;52.704;6.398;2022-08-30T10:41:05;2.97;;;1.65;;
54897;SDS011;40800;52.704;6.398;2022-08-30T10:46:17;3.40;;;1.77;;
54897;SDS011;40800;52.704;6.398;2022-08-30T10:49:09;3.60;;;1.90;;
54897;SDS011;40800;52.704;6.398;2022-08-30T10:51:59;5.28;;;1.70;;
54897;SDS011;40800;52.704;6.398;2022-08-30T10:57:08;3.42;;;1.80;;
54897;SDS011;40800;52.704;6.398;2022-08-30T10:59:34;3.00;;;1.40;;
54897;SDS011;40800;52.704;6.398;2022-08-30T11:07:28;3.42;;;1.70;;
54897;SDS011;40800;52.704;6.398;2022-08-30T11:10:15;4.35;;;1.95;;
54897;SDS011;40800;52.704;6.398;2022-08-30T11:16:32;2.30;;;1.70;;
54897;SDS011;40800;52.704;6.398;2022-08-30T11:39:58;9.13;;;2.30;;
54897;SDS011;40800;52.704;6.398;2022-08-30T11:42:41;5.78;;;2.00;;
54897;SDS011;40800;52.704;6.398;2022-08-30T11:51:05;3.38;;;1.50;;
54897;SDS011;40800;52.704;6.398;2022-08-30T11:53:43;2.22;;;1.48;;
54897;SDS011;40800;52.704;6.398;2022-08-30T11:56:24;13.35;;;2.20;;
54897;SDS011;40800;52.704;6.398;2022-08-30T11:59:16;5.07;;;1.70;;
54897;SDS011;40800;52.704;6.398;2022-08-30T12:01:43;5.88;;;1.98;;
54897;SDS011;40800;52.704;6.398;2022-08-30T12:04:14;5.17;;;2.10;;
54897;SDS011;40800;52.704;6.398;2022-08-30T12:06:53;3.97;;;1.63;;
54897;SDS011;40800;52.704;6.398;2022-08-30T12:14:33;5.07;;;1.70;;
54897;SDS011;40800;52.704;6.398;2022-08-30T12:16:59;4.03;;;1.65;;
54897;SDS011;40800;52.704;6.398;2022-08-30T12:19:55;3.22;;;1.45;;
54897;SDS011;40800;52.704;6.398;2022-08-30T12:22:22;4.15;;;1.80;;
54897;SDS011;40800;52.704;6.398;2022-08-30T12:24:49;4.03;;;1.77;;
54897;SDS011;40800;52.704;6.398;2022-08-30T12:27:23;2.90;;;1.60;;
54897;SDS011;40800;52.704;6.398;2022-08-30T12:29:51;4.40;;;1.88;;
54897;SDS011;40800;52.704;6.398;2022-08-30T12:32:19;4.65;;;2.05;;
54897;SDS011;40800;52.704;6.398;2022-08-30T12:34:59;2.78;;;1.70;;
54897;SDS011;40800;52.704;6.398;2022-08-30T12:37:29;3.28;;;1.75;;
54897;SDS011;40800;52.704;6.398;2022-08-30T12:42:50;6.07;;;1.85;;
54897;SDS011;40800;52.704;6.398;2022-08-30T12:45:21;2.90;;;1.70;;
54897;SDS011;40800;52.704;6.398;2022-08-30T12:47:55;3.40;;;1.65;;
54897;SDS011;40800;52.704;6.398;2022-08-30T12:50:24;3.40;;;1.75;;
54897;SDS011;40800;52.704;6.398;2022-08-30T12:53:00;3.45;;;1.58;;
54897;SDS011;40800;52.704;6.398;2022-08-30T12:55:29;4.28;;;1.85;;
54897;SDS011;40800;52.704;6.398;2022-08-30T12:58:01;2.25;;;1.65;;
54897;SDS011;40800;52.704;6.398;2022-08-30T13:00:41;2.00;;;1.50;;
54897;SDS011;40800;52.704;6.398;2022-08-30T13:05:52;6.30;;;1.83;;
54897;SDS011;40800;52.704;6.398;2022-08-30T13:11:10;3.47;;;1.50;;
54897;SDS011;40800;52.704;6.398;2022-08-30T13:13:51;2.92;;;1.40;;
54897;SDS011;40800;52.704;6.398;2022-08-30T13:16:26;3.00;;;1.60;;
54897;SDS011;40800;52.704;6.398;2022-08-30T13:19:18;6.18;;;1.73;;
54897;SDS011;40800;52.704;6.398;2022-08-30T13:22:02;5.80;;;1.60;;
54897;SDS011;40800;52.704;6.398;2022-08-30T13:24:29;4.85;;;1.83;;
54897;SDS011;40800;52.704;6.398;2022-08-30T13:26:55;3.45;;;1.67;;
54897;SDS011;40800;52.704;6.398;2022-08-30T13:29:26;3.38;;;1.73;;
54897;SDS011;40800;52.704;6.398;2022-08-30T13:31:52;2.40;;;1.45;;
54897;SDS011;40800;52.704;6.398;2022-08-30T13:34:18;3.28;;;1.45;;
54897;SDS011;40800;52.704;6.398;2022-08-30T13:36:55;2.78;;;1.42;;
54897;SDS011;40800;52.704;6.398;2022-08-30T13:39:22;8.18;;;2.00;;
54897;SDS011;40800;52.704;6.398;2022-08-30T13:41:49;2.85;;;1.63;;
54897;SDS011;40800;52.704;6.398;2022-08-30T13:44:15;1.88;;;1.30;;
54897;SDS011;40800;52.704;6.398;2022-08-30T13:46:42;3.30;;;1.60;;
54897;SDS011;40800;52.704;6.398;2022-08-30T13:49:23;12.10;;;1.92;;
54897;SDS011;40800;52.704;6.398;2022-08-30T13:51:54;4.57;;;1.80;;
54897;SDS011;40800;52.704;6.398;2022-08-30T13:54:20;8.43;;;2.00;;
54897;SDS011;40800;52.704;6.398;2022-08-30T13:56:50;3.25;;;1.80;;
54897;SDS011;40800;52.704;6.398;2022-08-30T13:59:17;1.80;;;1.33;;
54897;SDS011;40800;52.704;6.398;2022-08-30T14:01:43;6.60;;;1.63;;
54897;SDS011;40800;52.704;6.398;2022-08-30T14:04:09;2.40;;;1.50;;
54897;SDS011;40800;52.704;6.398;2022-08-30T14:06:35;2.57;;;1.50;;
54897;SDS011;40800;52.704;6.398;2022-08-30T14:09:01;2.23;;;1.43;;
54897;SDS011;40800;52.704;6.398;2022-08-30T14:11:30;5.60;;;1.45;;
54897;SDS011;40800;52.704;6.398;2022-08-30T14:13:56;2.15;;;1.40;;
54897;SDS011;40800;52.704;6.398;2022-08-30T14:16:22;4.10;;;1.50;;
54897;SDS011;40800;52.704;6.398;2022-08-30T14:18:47;1.90;;;1.50;;
54897;SDS011;40800;52.704;6.398;2022-08-30T14:21:13;7.78;;;1.65;;
54897;SDS011;40800;52.704;6.398;2022-08-30T14:23:39;3.57;;;1.70;;
54897;SDS011;40800;52.704;6.398;2022-08-30T14:26:08;2.70;;;1.70;;
54897;SDS011;40800;52.704;6.398;2022-08-30T14:28:40;4.85;;;1.50;;
54897;SDS011;40800;52.704;6.398;2022-08-30T14:31:06;1.30;;;1.00;;
54897;SDS011;40800;52.704;6.398;2022-08-30T14:33:32;2.47;;;1.60;;
54897;SDS011;40800;52.704;6.398;2022-08-30T14:35:58;2.30;;;1.53;;
54897;SDS011;40800;52.704;6.398;2022-08-30T14:38:23;2.63;;;1.30;;
54897;SDS011;40800;52.704;6.398;2022-08-30T14:40:49;7.87;;;1.60;;
54897;SDS011;40800;52.704;6.398;2022-08-30T14:43:14;2.90;;;1.77;;
54897;SDS011;40800;52.704;6.398;2022-08-30T14:45:40;1.87;;;1.30;;
54897;SDS011;40800;52.704;6.398;2022-08-30T14:48:06;3.90;;;1.40;;
54897;SDS011;40800;52.704;6.398;2022-08-30T14:50:34;3.50;;;1.50;;
54897;SDS011;40800;52.704;6.398;2022-08-30T14:53:00;1.60;;;1.40;;
54897;SDS011;40800;52.704;6.398;2022-08-30T14:55:26;1.92;;;1.40;;
54897;SDS011;40800;52.704;6.398;2022-08-30T14:57:53;2.97;;;1.52;;
54897;SDS011;40800;52.704;6.398;2022-08-30T15:02:47;2.38;;;1.40;;
54897;SDS011;40800;52.704;6.398;2022-08-30T15:05:13;2.92;;;1.60;;
54897;SDS011;40800;52.704;6.398;2022-08-30T15:07:39;2.28;;;1.42;;
54897;SDS011;40800;52.704;6.398;2022-08-30T15:10:05;1.93;;;1.37;;
54897;SDS011;40800;52.704;6.398;2022-08-30T15:12:31;3.63;;;1.48;;
54897;SDS011;40800;52.704;6.398;2022-08-30T15:14:57;3.43;;;1.30;;
54897;SDS011;40800;52.704;6.398;2022-08-30T15:17:23;4.10;;;1.40;;
54897;SDS011;40800;52.704;6.398;2022-08-30T15:19:49;3.07;;;1.40;;
54897;SDS011;40800;52.704;6.398;2022-08-30T15:22:15;3.88;;;1.77;;
54897;SDS011;40800;52.704;6.398;2022-08-30T15:24:41;4.25;;;1.60;;
54897;SDS011;40800;52.704;6.398;2022-08-30T15:27:07;4.60;;;1.60;;
54897;SDS011;40800;52.704;6.398;2022-08-30T15:29:33;3.83;;;1.80;;
54897;SDS011;40800;52.704;6.398;2022-08-30T15:32:00;3.15;;;1.50;;
54897;SDS011;40800;52.704;6.398;2022-08-30T15:34:27;1.65;;;1.48;;
54897;SDS011;40800;52.704;6.398;2022-08-30T15:36:54;3.13;;;1.73;;
54897;SDS011;40800;52.704;6.398;2022-08-30T15:41:46;2.38;;;1.50;;
54897;SDS011;40800;52.704;6.398;2022-08-30T15:44:13;2.08;;;1.30;;
54897;SDS011;40800;52.704;6.398;2022-08-30T15:46:40;4.43;;;1.77;;
54897;SDS011;40800;52.704;6.398;2022-08-30T15:49:17;6.57;;;2.28;;
54897;SDS011;40800;52.704;6.398;2022-08-30T15:51:45;4.20;;;1.40;;
54897;SDS011;40800;52.704;6.398;2022-08-30T15:54:14;6.75;;;1.90;;
54897;SDS011;40800;52.704;6.398;2022-08-30T15:56:41;3.88;;;1.50;;
54897;SDS011;40800;52.704;6.398;2022-08-30T15:59:07;11.68;;;2.25;;
54897;SDS011;40800;52.704;6.398;2022-08-30T16:03:59;2.85;;;1.40;;
54897;SDS011;40800;52.704;6.398;2022-08-30T16:06:27;10.88;;;2.40;;
54897;SDS011;40800;52.704;6.398;2022-08-30T16:08:54;7.35;;;1.65;;
54897;SDS011;40800;52.704;6.398;2022-08-30T16:11:22;7.68;;;1.48;;
54897;SDS011;40800;52.704;6.398;2022-08-30T16:13:49;5.80;;;1.40;;
54897;SDS011;40800;52.704;6.398;2022-08-30T16:16:16;10.57;;;2.20;;
54897;SDS011;40800;52.704;6.398;2022-08-30T16:18:44;7.70;;;1.60;;
54897;SDS011;40800;52.704;6.398;2022-08-30T16:21:11;5.00;;;1.63;;
54897;SDS011;40800;52.704;6.398;2022-08-30T16:23:42;3.17;;;1.30;;
54897;SDS011;40800;52.704;6.398;2022-08-30T16:26:09;2.45;;;1.40;;
54897;SDS011;40800;52.704;6.398;2022-08-30T16:28:36;3.67;;;1.38;;
54897;SDS011;40800;52.704;6.398;2022-08-30T16:31:03;3.47;;;1.60;;
54897;SDS011;40800;52.704;6.398;2022-08-30T16:33:30;2.58;;;1.40;;
54897;SDS011;40800;52.704;6.398;2022-08-30T16:35:56;7.28;;;1.80;;
54897;SDS011;40800;52.704;6.398;2022-08-30T16:38:22;4.00;;;1.33;;
54897;SDS011;40800;52.704;6.398;2022-08-30T16:40:49;2.72;;;1.13;;